createdAt,value
2018-02-07T00:01:07.378Z,93.50
2018-02-07T00:03:35.001Z,93.81
2018-02-07T00:06:02.543Z,94.39
2018-02-07T00:08:30.079Z,94.68
2018-02-07T00:10:57.962Z,94.29
2018-02-07T00:13:25.543Z,94.13
2018-02-07T00:15:53.180Z,94.05
2018-02-07T00:18:20.886Z,93.47
2018-02-07T00:20:48.953Z,94.54
2018-02-07T00:23:16.554Z,94.67
2018-02-07T00:25:44.289Z,94.61
2018-02-07T00:28:11.888Z,95.25
2018-02-07T00:30:39.545Z,95.40
2018-02-07T00:33:07.173Z,95.03
2018-02-07T00:35:34.682Z,94.38
2018-02-07T00:38:02.295Z,93.96
2018-02-07T00:40:29.834Z,93.65
2018-02-07T00:42:58.123Z,94.26
2018-02-07T00:45:25.738Z,94.88
2018-02-07T00:47:53.483Z,94.94
2018-02-07T00:50:21.108Z,94.38
2018-02-07T00:52:48.703Z,94.08
2018-02-07T00:55:16.267Z,94.10
2018-02-07T00:57:43.832Z,93.75
2018-02-07T01:00:11.399Z,93.95
2018-02-07T01:02:38.998Z,94.50
2018-02-07T01:05:06.543Z,94.69
2018-02-07T01:07:34.155Z,94.87
2018-02-07T01:10:01.705Z,94.53
2018-02-07T01:12:29.403Z,94.64
2018-02-07T01:14:56.928Z,94.50
2018-02-07T01:17:24.506Z,94.23
2018-02-07T01:19:52.043Z,93.75
2018-02-07T01:22:19.604Z,93.29
2018-02-07T01:24:47.147Z,93.27
2018-02-07T01:27:14.674Z,93.45
2018-02-07T01:29:42.270Z,93.28
2018-02-07T01:32:09.799Z,93.50
2018-02-07T01:34:37.413Z,93.14
2018-02-07T01:37:04.934Z,93.48
2018-02-07T01:39:32.548Z,93.97
2018-02-07T01:42:00.173Z,94.71
2018-02-07T01:44:27.763Z,94.74
2018-02-07T01:46:55.294Z,94.56
2018-02-07T01:49:22.831Z,94.54
2018-02-07T01:51:50.459Z,94.76
2018-02-07T01:54:18.068Z,94.49
2018-02-07T01:56:45.663Z,94.60
2018-02-07T01:59:13.283Z,94.81
2018-02-07T02:01:41.760Z,95.24
2018-02-07T02:04:09.331Z,95.22
2018-02-07T02:06:36.919Z,94.71
2018-02-07T02:09:04.567Z,95.09
2018-02-07T02:11:32.183Z,95.25
2018-02-07T02:13:59.708Z,94.16
2018-02-07T02:16:27.245Z,94.50
2018-02-07T02:18:54.763Z,94.29
2018-02-07T02:21:22.374Z,95.25
2018-02-07T02:23:50.019Z,95.25
2018-02-07T02:26:17.874Z,95.34
2018-02-07T02:28:45.514Z,95.91
2018-02-07T02:31:13.059Z,95.67
2018-02-07T02:33:40.599Z,95.56
2018-02-07T02:36:19.991Z,95.51
2018-02-07T02:38:47.558Z,95.28
2018-02-07T02:41:15.088Z,95.42
2018-02-07T02:43:42.664Z,95.25
2018-02-07T02:46:10.178Z,95.12
2018-02-07T02:48:37.799Z,94.84
2018-02-07T02:51:05.329Z,94.56
2018-02-07T02:53:32.883Z,94.94
2018-02-07T02:56:00.398Z,95.13
2018-02-07T02:58:27.933Z,95.12
2018-02-07T03:00:55.460Z,95.24
2018-02-07T03:03:23.033Z,95.42
2018-02-07T03:05:53.280Z,96.11
2018-02-07T03:08:20.800Z,96.31
2018-02-07T03:10:48.503Z,96.26
2018-02-07T03:13:16.037Z,95.51
2018-02-07T03:15:43.709Z,95.51
2018-02-07T03:18:11.209Z,95.17
2018-02-07T03:20:38.804Z,95.59
2018-02-07T03:23:06.388Z,95.36
2018-02-07T03:25:34.018Z,95.37
2018-02-07T03:28:01.592Z,94.84
2018-02-07T03:30:29.123Z,95.59
2018-02-07T03:32:56.660Z,95.82
2018-02-07T03:35:24.243Z,95.54
2018-02-07T03:37:51.800Z,94.82
2018-02-07T03:40:19.484Z,95.11
2018-02-07T03:42:47.015Z,94.71
2018-02-07T03:45:14.579Z,95.45
2018-02-07T03:47:42.084Z,95.52
2018-02-07T03:50:09.633Z,95.30
2018-02-07T03:52:37.204Z,95.30
2018-02-07T03:55:04.805Z,94.77
2018-02-07T03:57:32.325Z,94.29
2018-02-07T03:59:59.838Z,94.18
2018-02-07T04:02:27.483Z,94.68
2018-02-07T04:04:55.194Z,94.91
2018-02-07T04:07:22.748Z,94.34
2018-02-07T04:09:50.333Z,93.68
2018-02-07T04:12:17.891Z,93.66
2018-02-07T04:14:45.470Z,94.00
2018-02-07T04:17:13.070Z,93.93
2018-02-07T04:19:40.673Z,93.87
2018-02-07T04:22:08.255Z,93.72
2018-02-07T04:24:35.784Z,93.56
2018-02-07T04:27:03.324Z,93.47
2018-02-07T04:29:30.883Z,93.24
2018-02-07T04:31:58.420Z,93.25
2018-02-07T04:34:25.939Z,93.14
2018-02-07T04:36:53.481Z,93.27
2018-02-07T04:39:21.096Z,93.52
2018-02-07T04:41:48.624Z,93.37
2018-02-07T04:44:16.213Z,92.90
2018-02-07T04:46:43.799Z,92.74
2018-02-07T04:49:11.314Z,92.58
2018-02-07T04:51:38.896Z,92.95
2018-02-07T04:54:06.503Z,92.32
2018-02-07T04:56:34.034Z,92.43
2018-02-07T04:59:01.621Z,92.75
2018-02-07T05:01:29.155Z,92.70
2018-02-07T05:03:56.793Z,92.69
2018-02-07T05:06:24.384Z,92.76
2018-02-07T05:08:51.945Z,92.31
2018-02-07T05:11:19.485Z,92.31
2018-02-07T05:13:47.134Z,92.87
2018-02-07T05:16:14.645Z,92.31
2018-02-07T05:18:42.170Z,92.27
2018-02-07T05:21:09.753Z,92.26
2018-02-07T05:23:37.366Z,92.19
2018-02-07T05:26:04.906Z,91.77
2018-02-07T05:28:33.154Z,91.87
2018-02-07T05:31:00.814Z,92.91
2018-02-07T05:33:28.323Z,93.90
2018-02-07T05:35:55.855Z,93.78
2018-02-07T05:38:23.448Z,93.42
2018-02-07T05:40:51.036Z,93.66
2018-02-07T05:43:18.708Z,94.41
2018-02-07T05:45:46.602Z,94.77
2018-02-07T05:48:14.159Z,94.13
2018-02-07T05:50:42.683Z,93.90
2018-02-07T05:53:10.265Z,93.46
2018-02-07T05:55:37.793Z,93.46
2018-02-07T05:58:05.321Z,93.27
2018-02-07T06:00:32.858Z,92.57
2018-02-07T06:03:00.370Z,91.91
2018-02-07T06:05:27.884Z,91.49
2018-02-07T06:07:55.476Z,91.76
2018-02-07T06:10:23.103Z,91.96
2018-02-07T06:12:50.675Z,93.07
2018-02-07T06:15:18.274Z,93.20
2018-02-07T06:17:45.970Z,92.70
2018-02-07T06:20:13.843Z,92.86
2018-02-07T06:22:41.389Z,93.19
2018-02-07T06:25:08.995Z,93.08
2018-02-07T06:27:36.565Z,92.34
2018-02-07T06:30:04.094Z,91.01
2018-02-07T06:32:31.758Z,91.58
2018-02-07T06:34:59.394Z,92.71
2018-02-07T06:37:26.979Z,93.15
2018-02-07T06:39:54.631Z,93.22
2018-02-07T06:42:22.200Z,93.37
2018-02-07T06:44:49.986Z,93.56
2018-02-07T06:47:17.524Z,93.62
2018-02-07T06:49:45.049Z,93.28
2018-02-07T06:52:12.594Z,92.42
2018-02-07T06:54:40.128Z,91.93
2018-02-07T06:57:07.699Z,92.67
2018-02-07T06:59:35.263Z,92.73
2018-02-07T07:02:02.869Z,92.57
2018-02-07T07:04:30.424Z,92.78
2018-02-07T07:06:57.948Z,93.60
2018-02-07T07:09:25.633Z,93.61
2018-02-07T07:11:53.284Z,93.44
2018-02-07T07:14:20.834Z,93.08
2018-02-07T07:16:48.369Z,91.97
2018-02-07T07:19:15.884Z,91.80
2018-02-07T07:21:43.404Z,91.90
2018-02-07T07:24:11.029Z,91.28
2018-02-07T07:26:38.675Z,90.90
2018-02-07T07:29:06.264Z,90.31
2018-02-07T07:31:33.794Z,89.78
2018-02-07T07:34:01.634Z,88.98
2018-02-07T07:36:29.154Z,88.72
2018-02-07T07:38:56.885Z,89.13
2018-02-07T07:41:24.438Z,89.11
2018-02-07T07:43:51.975Z,89.47
2018-02-07T07:46:19.588Z,88.32
2018-02-07T07:48:47.169Z,88.47
2018-02-07T07:51:14.724Z,88.38
2018-02-07T07:53:42.256Z,88.37
2018-02-07T07:56:09.778Z,87.54
2018-02-07T07:58:37.298Z,87.05
2018-02-07T08:01:04.825Z,86.35
2018-02-07T08:03:32.344Z,85.12
2018-02-07T08:05:59.966Z,83.66
2018-02-07T08:08:27.495Z,82.78
2018-02-07T08:10:55.040Z,84.25
2018-02-07T08:13:22.703Z,83.20
2018-02-07T08:15:50.215Z,82.71
2018-02-07T08:18:17.827Z,82.60
2018-02-07T08:20:45.374Z,86.25
2018-02-07T08:23:12.963Z,89.39
2018-02-07T08:25:40.503Z,89.59
2018-02-07T08:28:08.091Z,88.29
2018-02-07T08:30:35.739Z,86.00
2018-02-07T08:33:03.288Z,84.10
2018-02-07T08:35:30.877Z,83.05
2018-02-07T08:37:58.444Z,83.25
2018-02-07T08:40:26.042Z,84.17
2018-02-07T08:42:53.655Z,82.72
2018-02-07T08:45:21.398Z,83.80
2018-02-07T08:47:49.045Z,83.68
2018-02-07T08:50:16.630Z,85.33
2018-02-07T08:52:44.144Z,83.69
2018-02-07T08:55:11.664Z,81.09
2018-02-07T08:57:39.328Z,78.98
2018-02-07T09:00:06.914Z,78.47
2018-02-07T09:02:34.431Z,78.46
2018-02-07T09:05:01.957Z,76.33
2018-02-07T09:07:29.494Z,76.73
2018-02-07T09:09:57.025Z,75.09
2018-02-07T09:12:24.580Z,78.49
2018-02-07T09:14:52.109Z,76.29
2018-02-07T09:17:19.621Z,76.05
2018-02-07T09:19:47.164Z,74.62
2018-02-07T09:22:14.684Z,74.61
2018-02-07T09:24:42.298Z,73.90
2018-02-07T09:27:09.865Z,76.25
2018-02-07T09:29:37.404Z,75.33
2018-02-07T09:32:05.063Z,74.81
2018-02-07T09:34:32.643Z,73.72
2018-02-07T09:37:00.277Z,69.86
2018-02-07T09:39:27.789Z,69.78
2018-02-07T09:41:55.329Z,70.34
2018-02-07T09:44:22.849Z,70.21
2018-02-07T09:46:50.378Z,66.67
2018-02-07T09:49:17.914Z,66.41
2018-02-07T09:51:45.448Z,71.08
2018-02-07T09:54:13.058Z,67.51
2018-02-07T09:56:40.649Z,65.06
2018-02-07T09:59:08.483Z,66.09
2018-02-07T10:01:36.035Z,65.55
2018-02-07T10:04:03.609Z,62.89
2018-02-07T10:06:31.200Z,61.38
2018-02-07T10:08:58.843Z,57.88
2018-02-07T10:11:26.517Z,57.11
2018-02-07T10:13:54.241Z,59.33
2018-02-07T10:16:21.758Z,59.33
2018-02-07T10:18:49.280Z,57.04
2018-02-07T10:21:16.820Z,64.23
2018-02-07T10:23:44.358Z,63.20
2018-02-07T10:26:11.899Z,61.78
2018-02-07T10:28:39.531Z,59.57
2018-02-07T10:31:07.134Z,57.93
2018-02-07T10:33:34.791Z,57.95
2018-02-07T10:36:02.313Z,57.47
2018-02-07T10:38:29.827Z,59.48
2018-02-07T10:40:57.359Z,68.24
2018-02-07T10:43:24.879Z,68.22
2018-02-07T10:45:52.521Z,67.63
2018-02-07T10:48:20.126Z,67.27
2018-02-07T10:50:47.659Z,66.20
2018-02-07T10:53:15.184Z,63.10
2018-02-07T10:55:42.779Z,63.93
2018-02-07T10:58:10.326Z,64.69
2018-02-07T11:00:37.874Z,66.73
2018-02-07T11:03:05.405Z,67.03
2018-02-07T11:05:32.924Z,64.14
2018-02-07T11:08:00.623Z,61.53
2018-02-07T11:10:28.173Z,61.87
2018-02-07T11:12:55.695Z,61.15
2018-02-07T11:15:23.268Z,60.89
2018-02-07T11:17:50.886Z,62.51
2018-02-07T11:20:18.414Z,63.19
2018-02-07T11:22:45.974Z,60.31
2018-02-07T11:25:13.506Z,61.98
2018-02-07T11:27:41.069Z,62.03
2018-02-07T11:30:08.618Z,63.48
2018-02-07T11:32:36.194Z,63.07
2018-02-07T11:35:03.844Z,61.09
2018-02-07T11:37:31.456Z,64.46
2018-02-07T11:39:58.998Z,64.42
2018-02-07T11:42:26.513Z,63.56
2018-02-07T11:44:54.344Z,63.03
2018-02-07T11:47:21.913Z,65.29
2018-02-07T11:49:49.499Z,65.44
2018-02-07T11:52:17.114Z,65.09
2018-02-07T11:54:44.761Z,65.70
2018-02-07T11:57:12.275Z,66.43
2018-02-07T11:59:39.811Z,67.02
2018-02-07T12:02:07.350Z,67.62
2018-02-07T12:04:34.895Z,68.17
2018-02-07T12:07:02.476Z,67.72
2018-02-07T12:09:30.038Z,68.10
2018-02-07T12:11:57.779Z,69.27
2018-02-07T12:14:25.343Z,69.45
2018-02-07T12:16:52.964Z,69.48
2018-02-07T12:19:20.489Z,70.44
2018-02-07T12:21:48.035Z,68.61
2018-02-07T12:24:15.600Z,68.50
2018-02-07T12:26:43.169Z,69.49
2018-02-07T12:29:10.711Z,69.12
2018-02-07T12:31:38.309Z,67.65
2018-02-07T12:34:05.841Z,66.89
2018-02-07T12:36:33.460Z,66.58
2018-02-07T12:39:01.076Z,64.76
2018-02-07T12:41:28.610Z,65.09
2018-02-07T12:43:56.160Z,65.84
2018-02-07T12:46:23.690Z,67.99
2018-02-07T12:48:51.325Z,68.38
2018-02-07T12:51:18.896Z,67.87
2018-02-07T12:53:46.441Z,65.56
2018-02-07T12:56:13.995Z,65.75
2018-02-07T12:58:41.598Z,66.79
2018-02-07T13:01:09.166Z,69.37
2018-02-07T13:03:36.830Z,67.12
2018-02-07T13:06:04.370Z,66.25
2018-02-07T13:08:32.866Z,66.22
2018-02-07T13:11:00.391Z,65.54
2018-02-07T13:13:27.941Z,67.22
2018-02-07T13:15:55.517Z,66.33
2018-02-07T13:18:23.036Z,66.35
2018-02-07T13:20:50.673Z,66.28
2018-02-07T13:23:18.189Z,66.31
2018-02-07T13:25:45.778Z,69.16
2018-02-07T13:28:13.296Z,68.86
2018-02-07T13:30:40.831Z,69.02
2018-02-07T13:33:08.755Z,71.37
2018-02-07T13:35:36.404Z,69.04
2018-02-07T13:38:03.934Z,70.59
2018-02-07T13:40:31.454Z,70.75
2018-02-07T13:42:59.181Z,70.54
2018-02-07T13:45:26.699Z,70.89
2018-02-07T13:47:54.236Z,69.58
2018-02-07T13:50:21.795Z,70.47
2018-02-07T13:52:49.319Z,72.36
2018-02-07T13:55:16.910Z,74.32
2018-02-07T13:57:44.560Z,72.48
2018-02-07T14:00:12.086Z,70.88
2018-02-07T14:02:39.629Z,71.28
2018-02-07T14:05:07.219Z,72.21
2018-02-07T14:07:34.753Z,71.94
2018-02-07T14:10:02.285Z,73.19
2018-02-07T14:12:29.799Z,72.85
2018-02-07T14:14:57.471Z,70.03
2018-02-07T14:17:25.069Z,70.66
2018-02-07T14:19:52.644Z,71.64
2018-02-07T14:22:20.219Z,72.62
2018-02-07T14:24:47.745Z,73.30
2018-02-07T14:27:15.293Z,72.81
2018-02-07T14:29:42.868Z,71.92
2018-02-07T14:32:10.399Z,71.48
2018-02-07T14:34:37.946Z,71.51
2018-02-07T14:37:05.704Z,72.44
2018-02-07T14:39:33.318Z,72.89
2018-02-07T14:42:01.774Z,73.46
2018-02-07T14:44:29.320Z,72.96
2018-02-07T14:46:56.930Z,72.95
2018-02-07T14:49:24.448Z,73.01
2018-02-07T14:51:52.106Z,72.04
2018-02-07T14:54:19.630Z,71.95
2018-02-07T14:56:47.221Z,71.26
2018-02-07T14:59:14.834Z,71.74
2018-02-07T15:01:42.363Z,72.12
2018-02-07T15:04:09.939Z,71.88
2018-02-07T15:06:37.476Z,70.75
2018-02-07T15:09:05.027Z,71.69
2018-02-07T15:11:32.544Z,70.85
2018-02-07T15:14:00.134Z,71.53
2018-02-07T15:16:27.675Z,70.95
2018-02-07T15:18:55.240Z,71.55
2018-02-07T15:21:22.928Z,71.87
2018-02-07T15:23:50.468Z,71.31
2018-02-07T15:26:18.099Z,70.34
2018-02-07T15:28:45.695Z,70.31
2018-02-07T15:31:13.215Z,70.63
2018-02-07T15:33:40.809Z,71.65
2018-02-07T15:36:08.340Z,72.21
2018-02-07T15:38:35.940Z,72.17
2018-02-07T15:41:03.558Z,72.11
2018-02-07T15:43:31.118Z,72.24
2018-02-07T15:45:58.810Z,72.76
2018-02-07T15:48:26.470Z,71.91
2018-02-07T15:50:53.995Z,71.92
2018-02-07T15:53:21.596Z,72.21
2018-02-07T15:55:49.196Z,72.77
2018-02-07T15:58:16.795Z,73.03
2018-02-07T16:00:44.410Z,73.20
2018-02-07T16:03:11.926Z,73.30
2018-02-07T16:05:39.618Z,72.68
2018-02-07T16:08:07.214Z,73.67
2018-02-07T16:10:34.819Z,73.62
2018-02-07T16:13:02.385Z,73.83
2018-02-07T16:15:29.964Z,74.54
2018-02-07T16:17:57.591Z,74.28
2018-02-07T16:20:25.160Z,73.34
2018-02-07T16:22:52.745Z,74.09
2018-02-07T16:25:20.305Z,73.65
2018-02-07T16:27:47.835Z,73.83
2018-02-07T16:30:15.950Z,73.76
2018-02-07T16:32:43.575Z,73.52
2018-02-07T16:35:11.169Z,73.51
2018-02-07T16:37:38.710Z,73.76
2018-02-07T16:40:06.254Z,73.98
2018-02-07T16:42:33.974Z,72.37
2018-02-07T16:45:01.510Z,71.78
2018-02-07T16:47:29.025Z,72.37
2018-02-07T16:49:56.555Z,71.43
2018-02-07T16:52:24.079Z,72.76
2018-02-07T16:54:51.619Z,72.92
2018-02-07T16:57:19.191Z,72.95
2018-02-07T16:59:46.723Z,72.13
2018-02-07T17:02:14.249Z,72.18
2018-02-07T17:04:41.788Z,72.35
2018-02-07T17:07:09.464Z,72.86
2018-02-07T17:09:37.131Z,73.26
2018-02-07T17:12:04.674Z,73.34
2018-02-07T17:14:32.250Z,73.06
2018-02-07T17:16:59.851Z,72.86
2018-02-07T17:19:27.396Z,73.13
2018-02-07T17:21:54.990Z,72.62
2018-02-07T17:24:22.504Z,73.48
2018-02-07T17:26:50.026Z,73.47
2018-02-07T17:29:17.555Z,73.60
2018-02-07T17:31:45.261Z,72.96
2018-02-07T17:34:12.794Z,72.97
2018-02-07T17:36:40.330Z,73.11
2018-02-07T17:39:07.979Z,73.74
2018-02-07T17:41:35.529Z,74.61
2018-02-07T17:44:03.051Z,74.40
2018-02-07T17:46:30.674Z,74.42
2018-02-07T17:48:58.227Z,74.45
2018-02-07T17:51:25.845Z,74.33
2018-02-07T17:53:53.361Z,74.47
2018-02-07T17:56:20.995Z,74.43
2018-02-07T17:58:48.546Z,74.75
2018-02-07T18:01:16.091Z,74.11
2018-02-07T18:03:43.683Z,74.25
2018-02-07T18:06:11.221Z,74.32
2018-02-07T18:08:38.826Z,74.29
2018-02-07T18:11:06.448Z,73.63
2018-02-07T18:13:34.002Z,73.81
2018-02-07T18:16:01.670Z,74.10
2018-02-07T18:18:29.240Z,73.58
2018-02-07T18:20:56.830Z,73.73
2018-02-07T18:23:24.378Z,74.34
2018-02-07T18:25:51.916Z,74.10
2018-02-07T18:28:19.470Z,74.10
2018-02-07T18:30:47.015Z,74.37
2018-02-07T18:33:14.637Z,74.14
2018-02-07T18:35:42.255Z,75.04
2018-02-07T18:38:09.870Z,75.16
2018-02-07T18:40:37.404Z,75.82
2018-02-07T18:43:04.949Z,76.81
2018-02-07T18:45:32.592Z,77.17
2018-02-07T18:48:00.181Z,77.11
2018-02-07T18:50:27.820Z,76.31
2018-02-07T18:52:55.536Z,75.97
2018-02-07T18:55:23.072Z,76.68
2018-02-07T18:57:50.650Z,76.37
2018-02-07T19:00:18.197Z,77.24
2018-02-07T19:02:45.826Z,77.47
2018-02-07T19:05:13.360Z,76.31
2018-02-07T19:07:40.972Z,76.97
2018-02-07T19:10:08.579Z,76.77
2018-02-07T19:12:36.106Z,77.83
2018-02-07T19:15:03.673Z,77.51
2018-02-07T19:17:31.299Z,77.69
2018-02-07T19:19:58.867Z,77.65
2018-02-07T19:22:26.426Z,77.03
2018-02-07T19:24:54.046Z,76.32
2018-02-07T19:27:21.615Z,76.32
2018-02-07T19:29:49.155Z,77.32
2018-02-07T19:32:16.805Z,76.95
2018-02-07T19:34:44.476Z,76.60
2018-02-07T19:37:12.027Z,76.74
2018-02-07T19:39:39.558Z,77.07
2018-02-07T19:42:07.186Z,77.11
2018-02-07T19:44:34.715Z,78.29
2018-02-07T19:47:02.374Z,78.37
2018-02-07T19:49:30.063Z,79.54
2018-02-07T19:51:57.587Z,79.71
2018-02-07T19:54:25.135Z,79.29
2018-02-07T19:56:52.733Z,78.73
2018-02-07T19:59:20.365Z,78.00
2018-02-07T20:01:47.904Z,77.53
2018-02-07T20:04:15.446Z,78.25
2018-02-07T20:06:43.074Z,77.97
2018-02-07T20:09:10.690Z,77.73
2018-02-07T20:11:38.226Z,77.94
2018-02-07T20:14:05.782Z,78.17
2018-02-07T20:16:33.344Z,79.31
2018-02-07T20:19:00.941Z,79.09
2018-02-07T20:21:28.504Z,78.98
2018-02-07T20:23:56.304Z,79.26
2018-02-07T20:26:23.884Z,78.90
2018-02-07T20:28:51.615Z,79.21
2018-02-07T20:31:19.481Z,79.19
2018-02-07T20:33:47.153Z,79.10
2018-02-07T20:36:14.881Z,79.21
2018-02-07T20:38:42.517Z,79.03
2018-02-07T20:41:10.104Z,78.65
2018-02-07T20:43:37.752Z,78.68
2018-02-07T20:46:05.677Z,78.49
2018-02-07T20:48:33.234Z,79.00
2018-02-07T20:51:00.844Z,79.21
2018-02-07T20:53:28.361Z,80.07
2018-02-07T20:55:55.905Z,79.06
2018-02-07T20:58:23.434Z,79.10
2018-02-07T21:00:50.972Z,78.73
2018-02-07T21:03:18.595Z,78.57
2018-02-07T21:05:46.221Z,79.25
2018-02-07T21:08:13.841Z,79.17
2018-02-07T21:10:41.447Z,79.23
2018-02-07T21:13:08.972Z,78.89
2018-02-07T21:15:36.906Z,79.07
2018-02-07T21:18:04.515Z,78.34
2018-02-07T21:20:32.059Z,77.88
2018-02-07T21:22:59.644Z,78.75
2018-02-07T21:25:27.343Z,79.38
2018-02-07T21:27:54.862Z,79.03
2018-02-07T21:30:22.582Z,79.65
2018-02-07T21:32:50.290Z,79.26
2018-02-07T21:35:17.887Z,79.21
2018-02-07T21:37:45.472Z,78.71
2018-02-07T21:40:13.071Z,78.47
2018-02-07T21:42:40.695Z,78.31
2018-02-07T21:45:08.364Z,78.70
2018-02-07T21:47:35.926Z,78.41
2018-02-07T21:50:03.501Z,78.99
2018-02-07T21:52:31.155Z,79.14
2018-02-07T21:54:58.834Z,79.65
2018-02-07T21:57:26.448Z,79.83
2018-02-07T21:59:54.034Z,81.15
2018-02-07T22:02:23.289Z,80.50
2018-02-07T22:04:50.800Z,79.45
2018-02-07T22:07:18.349Z,78.78
2018-02-07T22:09:45.899Z,76.94
2018-02-07T22:12:13.509Z,77.02
2018-02-07T22:14:41.260Z,77.01
2018-02-07T22:17:08.775Z,78.08
2018-02-07T22:19:36.319Z,77.52
2018-02-07T22:22:03.973Z,77.30
2018-02-07T22:24:31.558Z,77.55
2018-02-07T22:26:59.087Z,77.36
2018-02-07T22:29:26.696Z,76.18
2018-02-07T22:31:54.438Z,76.91
2018-02-07T22:34:22.005Z,76.77
2018-02-07T22:36:49.685Z,76.39
2018-02-07T22:39:17.221Z,76.39
2018-02-07T22:41:44.758Z,76.47
2018-02-07T22:44:12.295Z,76.93
2018-02-07T22:46:39.814Z,76.57
2018-02-07T22:49:07.390Z,76.67
2018-02-07T22:51:35.045Z,77.09
2018-02-07T22:54:02.623Z,77.47
2018-02-07T22:56:30.166Z,77.53
2018-02-07T22:59:00.869Z,77.95
2018-02-07T23:01:28.515Z,77.26
2018-02-07T23:03:56.290Z,75.99
2018-02-07T23:06:24.110Z,76.16
2018-02-07T23:12:02.246Z,76.81
2018-02-07T23:14:29.800Z,78.08
2018-02-07T23:16:57.330Z,77.87
2018-02-07T23:19:24.866Z,77.85
2018-02-07T23:21:52.411Z,77.96
2018-02-07T23:24:20.459Z,78.57
2018-02-07T23:26:48.054Z,79.33
2018-02-07T23:29:15.694Z,79.11
2018-02-07T23:31:43.360Z,78.97
2018-02-07T23:34:10.920Z,79.22
2018-02-07T23:36:38.553Z,79.18
2018-02-07T23:39:06.080Z,78.73
2018-02-07T23:41:33.590Z,79.34
2018-02-07T23:44:01.121Z,79.73
2018-02-07T23:46:28.731Z,79.85
2018-02-07T23:48:56.430Z,80.43
2018-02-07T23:51:24.192Z,80.94
2018-02-07T23:53:51.730Z,80.87
2018-02-07T23:56:19.275Z,81.05
2018-02-07T23:58:46.859Z,80.82
